オスロ の空港の天気 - METARとTAF

オスロ空港 ( ENGM / OSL ) - ノルウェー アーケシュフース県オスロ
飛行場実況気象(Metar)
観測時間04/30 16:20 CEST (04/30 14:20 UTC)
風向・風速南西 6m/s
視程10km以上
天気現象
なし
気温11℃
湿度26%
気圧1019hPa
METARENGM 301420Z 22011KT CAVOK 11/M08 Q1019 NOSIG
過去の天気等 Google飛行場航空写真 Wunderground天気予報

過去48時間のMETAR

飛行場予報(TAF)
発表時間: -
1日2時 CEST から 確率 30% で
視程2,000m
天気現象散在した霧
全天の8割程度の雲 雲底高度 60m
TAF ENGM 3012/0112 23008KT CAVOK
PROB30 0100/0106 2000 BCFG BKN002